createdAt,value
2023-05-20T00:00:35.265Z,14.12
2023-05-20T00:01:35.240Z,14.12
2023-05-20T00:02:35.277Z,14.16
2023-05-20T00:03:35.460Z,14.16
2023-05-20T00:04:35.273Z,14.13
2023-05-20T00:05:35.190Z,14.11
2023-05-20T00:06:35.238Z,14.06
2023-05-20T00:07:35.168Z,14.05
2023-05-20T00:08:35.163Z,14.04
2023-05-20T00:09:35.152Z,14.02
2023-05-20T00:10:35.144Z,14.01
2023-05-20T00:11:35.128Z,13.99
2023-05-20T00:12:35.123Z,13.98
2023-05-20T00:13:35.111Z,13.98
2023-05-20T00:14:35.105Z,13.96
2023-05-20T00:15:35.332Z,13.93
2023-05-20T00:16:35.093Z,13.91
2023-05-20T00:17:35.075Z,13.90
2023-05-20T00:18:35.060Z,13.90
2023-05-20T00:19:35.046Z,13.87
2023-05-20T00:20:35.029Z,13.86
2023-05-20T00:21:35.025Z,13.84
2023-05-20T00:22:35.002Z,13.84
2023-05-20T00:23:35.009Z,13.86
2023-05-20T00:24:34.987Z,13.88
2023-05-20T00:25:35.379Z,13.90
2023-05-20T00:26:34.967Z,13.90
2023-05-20T00:27:34.958Z,13.88
2023-05-20T00:28:34.956Z,13.86
2023-05-20T00:29:34.941Z,13.87
2023-05-20T00:30:34.920Z,13.84
2023-05-20T00:31:34.917Z,13.84
2023-05-20T00:32:34.922Z,13.84
2023-05-20T00:33:34.889Z,13.83
2023-05-20T00:34:34.877Z,13.81
2023-05-20T00:35:35.112Z,13.81
2023-05-20T00:36:34.850Z,13.83
2023-05-20T00:37:34.847Z,13.81
2023-05-20T00:38:34.828Z,13.80
2023-05-20T00:39:34.812Z,13.76
2023-05-20T00:40:34.807Z,13.73
2023-05-20T00:41:34.788Z,13.73
2023-05-20T00:42:34.798Z,13.73
2023-05-20T00:43:34.767Z,13.73
2023-05-20T00:44:34.766Z,13.73
2023-05-20T00:45:34.955Z,13.71
2023-05-20T00:46:34.863Z,13.71
2023-05-20T00:47:34.762Z,13.68
2023-05-20T00:48:34.710Z,13.68
2023-05-20T00:49:34.707Z,13.65
2023-05-20T00:50:34.698Z,13.63
2023-05-20T00:51:34.690Z,13.61
2023-05-20T00:52:34.683Z,13.59
2023-05-20T00:53:34.657Z,13.59
2023-05-20T00:54:34.652Z,13.57
2023-05-20T00:55:34.800Z,13.55
2023-05-20T00:56:34.640Z,13.54
2023-05-20T00:57:34.618Z,13.57
2023-05-20T00:58:34.605Z,13.59
2023-05-20T00:59:34.588Z,13.61
2023-05-20T01:00:34.592Z,13.57
2023-05-20T01:01:34.612Z,13.57
2023-05-20T01:02:34.625Z,13.55
2023-05-20T01:03:34.808Z,13.51
2023-05-20T01:04:34.534Z,13.51
2023-05-20T01:05:34.783Z,13.53
2023-05-20T01:06:34.520Z,13.54
2023-05-20T01:07:34.499Z,13.53
2023-05-20T01:08:34.492Z,13.51
2023-05-20T01:09:34.490Z,13.53
2023-05-20T01:10:34.475Z,13.53
2023-05-20T01:11:34.465Z,13.48
2023-05-20T01:12:34.445Z,13.48
2023-05-20T01:13:34.442Z,13.47
2023-05-20T01:14:34.432Z,13.46
2023-05-20T01:15:34.599Z,13.46
2023-05-20T01:16:34.446Z,13.43
2023-05-20T01:17:34.431Z,13.41
2023-05-20T01:18:34.384Z,13.38
2023-05-20T01:19:34.381Z,13.38
2023-05-20T01:20:34.354Z,13.35
2023-05-20T01:21:34.344Z,13.35
2023-05-20T01:22:34.334Z,13.32
2023-05-20T01:23:34.330Z,13.31
2023-05-20T01:24:34.372Z,13.31
2023-05-20T01:25:34.570Z,13.29
2023-05-20T01:26:34.288Z,13.29
2023-05-20T01:27:34.280Z,13.32
2023-05-20T01:28:34.283Z,13.32
2023-05-20T01:29:34.268Z,13.32
2023-05-20T01:30:34.249Z,13.31
2023-05-20T01:31:34.257Z,13.29
2023-05-20T01:32:34.249Z,13.28
2023-05-20T01:33:34.225Z,13.28
2023-05-20T01:34:34.196Z,13.27
2023-05-20T01:35:34.326Z,13.25
2023-05-20T01:36:34.189Z,13.27
2023-05-20T01:37:34.176Z,13.27
2023-05-20T01:38:34.168Z,13.24
2023-05-20T01:39:34.146Z,13.25
2023-05-20T01:40:34.167Z,13.25
2023-05-20T01:41:34.123Z,13.24
2023-05-20T01:42:34.129Z,13.22
2023-05-20T01:43:34.112Z,13.22
2023-05-20T01:44:34.109Z,13.22
2023-05-20T01:45:34.275Z,13.19
2023-05-20T01:46:34.251Z,13.21
2023-05-20T01:47:34.085Z,13.17
2023-05-20T01:48:34.053Z,13.14
2023-05-20T01:49:34.038Z,13.14
2023-05-20T01:50:34.052Z,13.14
2023-05-20T01:51:34.017Z,13.14
2023-05-20T01:52:34.033Z,13.14
2023-05-20T01:53:34.021Z,13.17
2023-05-20T01:54:34.004Z,13.17
2023-05-20T01:55:34.119Z,13.17
2023-05-20T01:56:33.976Z,13.14
2023-05-20T01:57:33.968Z,13.12
2023-05-20T01:58:33.941Z,13.10
2023-05-20T01:59:33.923Z,13.10
2023-05-20T02:00:33.957Z,13.10
2023-05-20T02:01:33.945Z,13.10
2023-05-20T02:02:34.098Z,13.09
2023-05-20T02:03:33.884Z,13.09
2023-05-20T02:04:33.905Z,13.06
2023-05-20T02:05:34.144Z,13.04
2023-05-20T02:06:33.868Z,13.03
2023-05-20T02:07:33.836Z,13.01
2023-05-20T02:08:33.850Z,13.01
2023-05-20T02:09:33.824Z,12.98
2023-05-20T02:10:33.825Z,12.96
2023-05-20T02:11:33.793Z,12.95
2023-05-20T02:12:33.788Z,12.95
2023-05-20T02:13:33.770Z,12.91
2023-05-20T02:14:33.766Z,12.92
2023-05-20T02:15:34.236Z,12.89
2023-05-20T02:16:33.814Z,12.88
2023-05-20T02:17:33.762Z,12.85
2023-05-20T02:18:33.723Z,12.84
2023-05-20T02:19:33.725Z,12.81
2023-05-20T02:20:33.712Z,12.80
2023-05-20T02:21:33.689Z,12.84
2023-05-20T02:22:33.688Z,12.81
2023-05-20T02:23:33.669Z,12.81
2023-05-20T02:24:33.670Z,12.80
2023-05-20T02:25:33.964Z,12.79
2023-05-20T02:26:33.639Z,12.76
2023-05-20T02:27:33.623Z,12.73
2023-05-20T02:28:33.643Z,12.70
2023-05-20T02:29:33.608Z,12.67
2023-05-20T02:30:33.599Z,12.67
2023-05-20T02:31:33.579Z,12.67
2023-05-20T02:32:33.676Z,12.66
2023-05-20T02:33:33.621Z,12.63
2023-05-20T02:34:33.662Z,12.63
2023-05-20T02:35:33.748Z,12.62
2023-05-20T02:36:33.528Z,12.62
2023-05-20T02:37:33.510Z,12.63
2023-05-20T02:38:33.516Z,12.62
2023-05-20T02:39:33.489Z,12.62
2023-05-20T02:40:33.493Z,12.59
2023-05-20T02:41:33.470Z,12.56
2023-05-20T02:42:33.469Z,12.58
2023-05-20T02:43:33.460Z,12.58
2023-05-20T02:44:33.441Z,12.56
2023-05-20T02:45:33.422Z,12.58
2023-05-20T02:46:33.456Z,12.58
2023-05-20T02:47:33.433Z,12.56
2023-05-20T02:48:33.405Z,12.58
2023-05-20T02:49:33.377Z,12.55
2023-05-20T02:50:33.368Z,12.52
2023-05-20T02:51:33.385Z,12.52
2023-05-20T02:52:33.362Z,12.49
2023-05-20T02:53:33.331Z,12.48
2023-05-20T02:54:33.337Z,12.46
2023-05-20T02:55:33.534Z,12.44
2023-05-20T02:56:33.309Z,12.43
2023-05-20T02:57:33.305Z,12.41
2023-05-20T02:58:33.286Z,12.41
2023-05-20T02:59:33.272Z,12.40
2023-05-20T03:00:33.258Z,12.37
2023-05-20T03:01:33.276Z,12.40
2023-05-20T03:02:33.257Z,12.41
2023-05-20T03:03:33.219Z,12.43
2023-05-20T03:04:33.236Z,12.43
2023-05-20T03:05:33.337Z,12.43
2023-05-20T03:06:33.206Z,12.44
2023-05-20T03:07:33.187Z,12.43
2023-05-20T03:08:33.177Z,12.38
2023-05-20T03:09:33.153Z,12.40
2023-05-20T03:10:33.147Z,12.41
2023-05-20T03:11:33.150Z,12.41
2023-05-20T03:12:33.123Z,12.40
2023-05-20T03:13:33.111Z,12.40
2023-05-20T03:14:33.120Z,12.38
2023-05-20T03:15:33.302Z,12.37
2023-05-20T03:16:33.198Z,12.36
2023-05-20T03:17:33.113Z,12.36
2023-05-20T03:18:33.061Z,12.36
2023-05-20T03:19:33.076Z,12.36
2023-05-20T03:20:33.054Z,12.36
2023-05-20T03:21:33.036Z,12.34
2023-05-20T03:22:33.012Z,12.34
2023-05-20T03:23:32.990Z,12.36
2023-05-20T03:24:32.998Z,12.34
2023-05-20T03:25:33.324Z,12.36
2023-05-20T03:26:32.966Z,12.37
2023-05-20T03:27:32.950Z,12.34
2023-05-20T03:28:32.959Z,12.37
2023-05-20T03:29:32.932Z,12.36
2023-05-20T03:30:32.951Z,12.33
2023-05-20T03:31:32.961Z,12.34
2023-05-20T03:32:32.954Z,12.33
2023-05-20T03:33:32.883Z,12.33
2023-05-20T03:34:32.893Z,12.31
2023-05-20T03:35:33.113Z,12.33
2023-05-20T03:36:32.850Z,12.34
2023-05-20T03:37:32.841Z,12.34
2023-05-20T03:38:32.846Z,12.34
2023-05-20T03:39:32.839Z,12.31
2023-05-20T03:40:32.816Z,12.29
2023-05-20T03:41:32.843Z,12.29
2023-05-20T03:42:32.793Z,12.30
2023-05-20T03:43:32.779Z,12.29
2023-05-20T03:44:32.791Z,12.30
2023-05-20T03:45:32.829Z,12.31
2023-05-20T03:46:32.790Z,12.31
2023-05-20T03:47:32.781Z,12.30
2023-05-20T03:48:32.729Z,12.30
2023-05-20T03:49:32.709Z,12.30
2023-05-20T03:50:32.716Z,12.33
2023-05-20T03:51:32.686Z,12.33
2023-05-20T03:52:32.674Z,12.34
2023-05-20T03:53:32.673Z,12.33
2023-05-20T03:54:32.653Z,12.33
2023-05-20T03:55:32.802Z,12.33
2023-05-20T03:56:32.634Z,12.34
2023-05-20T03:57:32.616Z,12.37
2023-05-20T03:58:32.622Z,12.37
2023-05-20T03:59:32.612Z,12.38
2023-05-20T04:00:32.592Z,12.40
2023-05-20T04:01:32.670Z,12.38
2023-05-20T04:02:32.630Z,12.40
2023-05-20T04:03:32.709Z,12.40
2023-05-20T04:04:32.565Z,12.44
2023-05-20T04:05:32.640Z,12.43
2023-05-20T04:06:32.531Z,12.43
2023-05-20T04:07:32.514Z,12.46
2023-05-20T04:08:32.510Z,12.46
2023-05-20T04:09:32.495Z,12.46
2023-05-20T04:10:32.474Z,12.46
2023-05-20T04:11:32.465Z,12.49
2023-05-20T04:12:32.468Z,12.48
2023-05-20T04:13:32.445Z,12.49
2023-05-20T04:14:33.821Z,12.52
2023-05-20T04:15:32.497Z,12.52
2023-05-20T04:16:32.465Z,12.54
2023-05-20T04:17:32.582Z,12.55
2023-05-20T04:18:32.436Z,12.58
2023-05-20T04:19:32.421Z,12.58
2023-05-20T04:20:32.433Z,12.56
2023-05-20T04:21:32.365Z,12.59
2023-05-20T04:22:32.398Z,12.66
2023-05-20T04:23:32.329Z,12.69
2023-05-20T04:24:32.318Z,12.69
2023-05-20T04:25:32.485Z,12.66
2023-05-20T04:26:32.352Z,12.66
2023-05-20T04:27:32.395Z,12.69
2023-05-20T04:28:32.329Z,12.70
2023-05-20T04:29:32.264Z,12.71
2023-05-20T04:30:32.284Z,12.74
2023-05-20T04:31:32.303Z,12.74
2023-05-20T04:32:32.343Z,12.74
2023-05-20T04:33:32.220Z,12.71
2023-05-20T04:34:32.211Z,12.74
2023-05-20T04:35:32.316Z,12.77
2023-05-20T04:36:32.204Z,12.80
2023-05-20T04:37:32.196Z,12.84
2023-05-20T04:38:32.165Z,12.81
2023-05-20T04:39:32.148Z,12.87
2023-05-20T04:40:32.146Z,12.87
2023-05-20T04:41:32.138Z,12.88
2023-05-20T04:42:32.144Z,12.92
2023-05-20T04:43:32.108Z,12.91
2023-05-20T04:44:32.113Z,12.91
2023-05-20T04:45:32.173Z,12.95
2023-05-20T04:46:32.174Z,12.96
2023-05-20T04:47:32.076Z,13.01
2023-05-20T04:48:32.075Z,13.03
2023-05-20T04:49:32.040Z,13.07
2023-05-20T04:50:32.187Z,13.04
2023-05-20T04:51:32.066Z,13.06
2023-05-20T04:52:31.999Z,13.07
2023-05-20T04:53:32.004Z,13.10
2023-05-20T04:54:32.508Z,13.13
2023-05-20T04:55:32.106Z,13.13
2023-05-20T04:56:31.972Z,13.19
2023-05-20T04:57:31.958Z,13.22
2023-05-20T04:58:31.935Z,13.21
2023-05-20T04:59:31.945Z,13.24
2023-05-20T05:00:31.913Z,13.29
2023-05-20T05:01:31.962Z,13.32
2023-05-20T05:02:31.914Z,13.31
2023-05-20T05:03:34.473Z,13.32
2023-05-20T05:04:31.935Z,13.41
2023-05-20T05:05:32.049Z,13.47
2023-05-20T05:06:31.853Z,13.48
2023-05-20T05:07:31.842Z,13.44
2023-05-20T05:08:31.840Z,13.47
2023-05-20T05:09:33.114Z,13.48
2023-05-20T05:10:31.810Z,13.48
2023-05-20T05:11:31.884Z,13.48
2023-05-20T05:12:31.786Z,13.46
2023-05-20T05:13:31.787Z,13.50
2023-05-20T05:14:31.762Z,13.54
2023-05-20T05:15:31.858Z,13.54
2023-05-20T05:16:31.800Z,13.51
2023-05-20T05:17:31.784Z,13.55
2023-05-20T05:18:31.741Z,13.62
2023-05-20T05:19:31.719Z,13.71
2023-05-20T05:20:31.790Z,13.71
2023-05-20T05:21:31.938Z,13.68
2023-05-20T05:22:31.907Z,13.72
2023-05-20T05:23:31.683Z,13.79
2023-05-20T05:24:31.654Z,13.86
2023-05-20T05:25:31.773Z,13.90
2023-05-20T05:26:31.635Z,13.96
2023-05-20T05:27:31.651Z,13.87
2023-05-20T05:28:31.621Z,13.80
2023-05-20T05:29:31.628Z,13.84
2023-05-20T05:30:31.589Z,13.90
2023-05-20T05:31:31.582Z,13.91
2023-05-20T05:32:31.710Z,13.94
2023-05-20T05:33:31.674Z,14.02
2023-05-20T05:34:31.551Z,14.12
2023-05-20T05:35:31.596Z,14.13
2023-05-20T05:36:31.529Z,14.12
2023-05-20T05:37:31.525Z,14.19
2023-05-20T05:38:31.493Z,14.23
2023-05-20T05:39:31.498Z,14.27
2023-05-20T05:40:31.481Z,14.13
2023-05-20T05:41:31.481Z,14.19
2023-05-20T05:42:31.481Z,14.17
2023-05-20T05:43:31.455Z,14.16
2023-05-20T05:44:31.429Z,14.17
2023-05-20T05:45:31.623Z,14.19
2023-05-20T05:46:31.618Z,14.20
2023-05-20T05:47:31.443Z,14.16
2023-05-20T05:48:31.387Z,14.11
2023-05-20T05:49:31.376Z,14.06
2023-05-20T05:50:31.386Z,14.12
2023-05-20T05:51:31.374Z,14.23
2023-05-20T05:52:31.346Z,14.36
2023-05-20T05:53:31.329Z,14.39
2023-05-20T05:54:31.327Z,14.41
2023-05-20T05:55:31.374Z,14.48
2023-05-20T05:56:31.322Z,14.54
2023-05-20T05:57:31.292Z,14.53
2023-05-20T05:58:31.277Z,14.59
2023-05-20T05:59:31.262Z,14.52
2023-05-20T06:00:31.264Z,14.49
2023-05-20T06:01:31.250Z,14.60
2023-05-20T06:02:31.302Z,14.71
2023-05-20T06:03:31.348Z,14.86
2023-05-20T06:04:31.275Z,15.03
2023-05-20T06:05:31.292Z,15.07
2023-05-20T06:06:31.188Z,14.97
2023-05-20T06:07:31.182Z,14.93
2023-05-20T06:08:31.171Z,15.00
2023-05-20T06:09:31.153Z,15.01
2023-05-20T06:10:31.162Z,15.01
2023-05-20T06:11:31.134Z,15.05
2023-05-20T06:12:31.127Z,15.19
2023-05-20T06:13:31.106Z,15.25
2023-05-20T06:14:31.111Z,15.19
2023-05-20T06:15:31.094Z,15.23
2023-05-20T06:16:31.081Z,15.31
2023-05-20T06:17:31.103Z,15.31
2023-05-20T06:18:31.052Z,15.22
2023-05-20T06:19:31.101Z,15.13
2023-05-20T06:20:31.101Z,15.11
2023-05-20T06:21:31.014Z,15.16
2023-05-20T06:22:31.022Z,15.18
2023-05-20T06:23:30.993Z,15.20
2023-05-20T06:24:31.006Z,15.18
2023-05-20T06:25:31.039Z,15.18
2023-05-20T06:26:30.965Z,15.22
2023-05-20T06:27:30.986Z,15.09
2023-05-20T06:28:30.955Z,15.04
2023-05-20T06:29:30.952Z,15.18
2023-05-20T06:30:30.915Z,15.15
2023-05-20T06:31:31.048Z,15.19
2023-05-20T06:32:30.959Z,15.22
2023-05-20T06:33:30.891Z,15.18
2023-05-20T06:34:30.979Z,15.31
2023-05-20T06:35:30.867Z,15.35
2023-05-20T06:36:33.015Z,15.37
2023-05-20T06:37:30.863Z,15.43
2023-05-20T06:38:30.847Z,15.34
2023-05-20T06:39:30.829Z,15.53
2023-05-20T06:40:30.813Z,15.52
2023-05-20T06:41:30.798Z,15.33
2023-05-20T06:42:30.802Z,15.48
2023-05-20T06:43:30.779Z,15.46
2023-05-20T06:44:30.766Z,15.64
2023-05-20T06:45:30.765Z,15.84
2023-05-20T06:46:31.082Z,15.85
2023-05-20T06:47:31.108Z,15.80
2023-05-20T06:48:31.963Z,15.76
2023-05-20T06:49:30.918Z,15.68
2023-05-20T06:50:30.935Z,15.74
2023-05-20T06:51:30.955Z,15.80
2023-05-20T06:52:30.701Z,15.93
2023-05-20T06:53:30.667Z,15.88
2023-05-20T06:54:30.655Z,15.86
2023-05-20T06:55:30.641Z,15.95
2023-05-20T06:56:30.644Z,15.96
2023-05-20T06:57:30.631Z,15.92
2023-05-20T06:58:30.612Z,15.95
2023-05-20T06:59:30.608Z,16.13
2023-05-20T07:00:30.646Z,16.16
2023-05-20T07:01:30.621Z,16.22
2023-05-20T07:02:30.632Z,16.30
2023-05-20T07:03:30.598Z,16.41
2023-05-20T07:04:30.549Z,16.41
2023-05-20T07:05:30.529Z,16.27
2023-05-20T07:06:30.538Z,16.17
2023-05-20T07:07:30.522Z,15.92
2023-05-20T07:08:30.506Z,15.99
2023-05-20T07:09:30.492Z,16.03
2023-05-20T07:10:30.490Z,16.25
2023-05-20T07:11:30.480Z,16.10
2023-05-20T07:12:30.450Z,15.99
2023-05-20T07:13:30.445Z,16.01
2023-05-20T07:14:30.427Z,15.89
2023-05-20T07:15:30.444Z,15.95
2023-05-20T07:16:30.461Z,16.03
2023-05-20T07:17:30.435Z,16.08
2023-05-20T07:18:30.385Z,15.89
2023-05-20T07:19:30.446Z,15.78
2023-05-20T07:20:30.375Z,15.88
2023-05-20T07:21:30.367Z,15.95
2023-05-20T07:22:30.342Z,16.04
2023-05-20T07:23:30.339Z,16.03
2023-05-20T07:24:30.338Z,15.96
2023-05-20T07:25:30.320Z,15.86
2023-05-20T07:26:30.299Z,15.73
2023-05-20T07:27:30.289Z,15.81
2023-05-20T07:28:30.282Z,15.86
2023-05-20T07:29:30.281Z,15.78
2023-05-20T07:30:30.259Z,15.85
2023-05-20T07:31:30.317Z,15.78
2023-05-20T07:32:30.285Z,15.71
2023-05-20T07:33:30.254Z,15.67
2023-05-20T07:34:30.225Z,15.74
2023-05-20T07:35:30.212Z,15.76
2023-05-20T07:36:30.193Z,15.71
2023-05-20T07:37:30.224Z,15.62
2023-05-20T07:38:30.186Z,15.64
2023-05-20T07:39:30.168Z,15.73
2023-05-20T07:40:30.142Z,15.78
2023-05-20T07:41:30.139Z,15.81
2023-05-20T07:42:30.140Z,15.81
2023-05-20T07:43:30.128Z,15.78
2023-05-20T07:44:30.109Z,15.68
2023-05-20T07:45:30.100Z,15.62
2023-05-20T07:46:30.146Z,15.66
2023-05-20T07:47:30.103Z,15.66
2023-05-20T07:48:30.065Z,15.64
2023-05-20T07:49:30.053Z,15.71
2023-05-20T07:50:30.034Z,15.81
2023-05-20T07:51:30.027Z,15.70
2023-05-20T07:52:32.119Z,15.66
2023-05-20T07:53:30.018Z,15.66
2023-05-20T07:54:29.997Z,15.64
2023-05-20T07:55:29.991Z,15.62
2023-05-20T07:56:29.972Z,15.56
2023-05-20T07:57:29.973Z,15.56
2023-05-20T07:58:29.971Z,15.67
2023-05-20T07:59:29.949Z,15.76
2023-05-20T08:00:29.922Z,15.85
2023-05-20T08:01:29.928Z,15.85
2023-05-20T08:02:30.042Z,15.91
2023-05-20T08:03:30.189Z,15.74
2023-05-20T08:04:29.916Z,15.80
2023-05-20T08:05:29.891Z,15.84
2023-05-20T08:06:30.111Z,15.95
2023-05-20T08:07:29.860Z,16.06
2023-05-20T08:08:29.836Z,16.08
2023-05-20T08:09:29.844Z,16.04
2023-05-20T08:10:29.827Z,16.06
2023-05-20T08:11:29.836Z,16.08
2023-05-20T08:12:29.821Z,16.08
2023-05-20T08:13:29.787Z,16.03
2023-05-20T08:14:29.784Z,16.14
2023-05-20T08:15:29.768Z,16.33
2023-05-20T08:16:29.785Z,16.40
2023-05-20T08:17:29.786Z,16.27
2023-05-20T08:18:29.728Z,16.30
2023-05-20T08:19:29.836Z,16.34
2023-05-20T08:20:29.707Z,16.40
2023-05-20T08:21:29.707Z,16.37
2023-05-20T08:22:29.693Z,16.41
2023-05-20T08:23:29.683Z,16.27
2023-05-20T08:24:29.660Z,16.33
2023-05-20T08:25:29.651Z,16.27
2023-05-20T08:26:29.648Z,16.29
2023-05-20T08:27:29.630Z,16.27
2023-05-20T08:28:29.620Z,16.27
2023-05-20T08:29:29.606Z,16.36
2023-05-20T08:30:29.598Z,16.47
2023-05-20T08:31:29.649Z,16.57
2023-05-20T08:32:29.616Z,16.75
2023-05-20T08:33:29.575Z,16.63
2023-05-20T08:34:29.551Z,16.65
2023-05-20T08:35:29.598Z,16.73
2023-05-20T08:36:29.522Z,17.00
2023-05-20T08:37:29.539Z,17.12
2023-05-20T08:38:29.517Z,17.03
2023-05-20T08:39:29.516Z,17.07
2023-05-20T08:40:29.508Z,17.07
2023-05-20T08:41:29.498Z,17.18
2023-05-20T08:42:29.457Z,17.25
2023-05-20T08:43:29.448Z,17.14
2023-05-20T08:44:29.443Z,17.07
2023-05-20T08:45:29.439Z,17.06
2023-05-20T08:46:29.454Z,17.05
2023-05-20T08:47:29.421Z,17.07
2023-05-20T08:48:29.398Z,17.06
2023-05-20T08:49:29.387Z,16.96
2023-05-20T08:50:29.378Z,16.88
2023-05-20T08:51:29.366Z,16.82
2023-05-20T08:52:29.349Z,16.69
2023-05-20T08:53:29.346Z,16.73
2023-05-20T08:54:29.326Z,16.82
2023-05-20T08:55:29.334Z,16.87
2023-05-20T08:56:30.992Z,16.87
2023-05-20T08:57:29.309Z,16.73
2023-05-20T08:58:29.284Z,16.66
2023-05-20T08:59:29.289Z,16.73
2023-05-20T09:00:29.281Z,16.75
2023-05-20T09:01:29.303Z,16.85
2023-05-20T09:02:29.356Z,16.92
2023-05-20T09:03:29.233Z,16.84
2023-05-20T09:04:29.269Z,16.88
2023-05-20T09:05:29.214Z,17.07
2023-05-20T09:06:29.194Z,17.05
2023-05-20T09:07:29.188Z,17.06
2023-05-20T09:08:29.177Z,17.09
2023-05-20T09:09:29.177Z,17.14
2023-05-20T09:10:29.158Z,17.32
2023-05-20T09:11:29.143Z,17.32
2023-05-20T09:12:29.134Z,17.42
2023-05-20T09:13:29.132Z,17.60
2023-05-20T09:14:29.118Z,17.87
2023-05-20T09:15:29.102Z,17.94
2023-05-20T09:16:29.127Z,17.99
2023-05-20T09:17:29.099Z,18.07
2023-05-20T09:18:29.075Z,17.96
2023-05-20T09:19:29.101Z,17.66
2023-05-20T09:20:29.051Z,17.57
2023-05-20T09:21:29.047Z,17.53
2023-05-20T09:22:29.040Z,17.62
2023-05-20T09:23:29.019Z,17.49
2023-05-20T09:24:28.995Z,17.49
2023-05-20T09:25:28.990Z,17.54
2023-05-20T09:26:28.975Z,17.77
2023-05-20T09:27:29.095Z,17.76
2023-05-20T09:28:28.958Z,17.86
2023-05-20T09:29:28.951Z,17.96
2023-05-20T09:30:28.933Z,17.95
2023-05-20T09:31:28.937Z,18.04
2023-05-20T09:32:29.004Z,18.01
2023-05-20T09:33:28.911Z,17.89
2023-05-20T09:34:28.888Z,17.81
2023-05-20T09:35:28.885Z,17.77
2023-05-20T09:36:28.864Z,17.83
2023-05-20T09:37:28.873Z,17.94
2023-05-20T09:38:28.848Z,17.91
2023-05-20T09:39:28.835Z,17.92
2023-05-20T09:40:28.813Z,17.96
2023-05-20T09:41:28.831Z,18.01
2023-05-20T09:42:28.809Z,17.96
2023-05-20T09:43:28.795Z,17.98
2023-05-20T09:44:28.776Z,18.16
2023-05-20T09:45:28.776Z,18.34
2023-05-20T09:46:28.776Z,18.49
2023-05-20T09:47:28.746Z,18.60
2023-05-20T09:48:28.730Z,18.72
2023-05-20T09:49:28.728Z,18.83
2023-05-20T09:50:28.747Z,18.78
2023-05-20T09:51:28.711Z,18.90
2023-05-20T09:52:28.687Z,18.89
2023-05-20T09:53:28.682Z,18.94
2023-05-20T09:54:28.671Z,19.01
2023-05-20T09:55:28.682Z,18.97
2023-05-20T09:56:28.657Z,18.79
2023-05-20T09:57:28.635Z,18.60
2023-05-20T09:58:28.630Z,18.56
2023-05-20T09:59:28.626Z,18.50
2023-05-20T10:00:28.620Z,18.59
2023-05-20T10:01:28.659Z,18.76
2023-05-20T10:02:28.701Z,18.69
2023-05-20T10:03:28.850Z,18.59
2023-05-20T10:04:28.555Z,18.53
2023-05-20T10:05:28.556Z,18.54
2023-05-20T10:06:28.535Z,18.57
2023-05-20T10:07:41.194Z,18.50
2023-05-20T10:08:28.526Z,18.51
2023-05-20T10:09:28.516Z,18.57
2023-05-20T10:10:28.502Z,18.49
2023-05-20T10:11:28.484Z,18.38
2023-05-20T10:12:28.467Z,18.44
2023-05-20T10:13:28.484Z,18.47
2023-05-20T10:14:28.461Z,18.57
2023-05-20T10:15:28.486Z,18.71
2023-05-20T10:16:28.551Z,18.57
2023-05-20T10:17:28.476Z,18.50
2023-05-20T10:18:28.402Z,18.68
2023-05-20T10:19:28.910Z,18.72
2023-05-20T10:20:28.389Z,18.78
2023-05-20T10:21:28.383Z,18.90
2023-05-20T10:22:28.376Z,19.09
2023-05-20T10:23:28.385Z,19.02
2023-05-20T10:24:28.352Z,19.05
2023-05-20T10:25:28.362Z,18.97
2023-05-20T10:26:28.325Z,18.93
2023-05-20T10:27:28.312Z,19.05
2023-05-20T10:28:28.304Z,18.96
2023-05-20T10:29:28.324Z,18.94
2023-05-20T10:30:28.272Z,18.90
2023-05-20T10:31:28.270Z,18.90
2023-05-20T10:32:28.356Z,18.87
2023-05-20T10:33:28.369Z,18.87
2023-05-20T10:34:28.234Z,18.60
2023-05-20T10:35:28.230Z,18.44
2023-05-20T10:36:28.207Z,18.49
2023-05-20T10:37:28.210Z,18.65
2023-05-20T10:38:28.197Z,18.78
2023-05-20T10:39:28.178Z,18.90
2023-05-20T10:40:28.159Z,19.01
2023-05-20T10:41:28.154Z,19.17
2023-05-20T10:42:28.161Z,19.31
2023-05-20T10:43:28.138Z,19.38
2023-05-20T10:44:28.116Z,19.30
2023-05-20T10:45:28.110Z,19.28
2023-05-20T10:46:36.707Z,19.20
2023-05-20T10:47:28.151Z,19.01
2023-05-20T10:48:28.155Z,19.02
2023-05-20T10:49:28.187Z,19.13
2023-05-20T10:50:28.064Z,19.21
2023-05-20T10:51:28.045Z,19.24
2023-05-20T10:52:28.038Z,19.15
2023-05-20T10:53:33.925Z,19.23
2023-05-20T10:54:28.008Z,19.20
2023-05-20T10:55:27.999Z,19.23
2023-05-20T10:56:27.986Z,19.32
2023-05-20T10:57:27.994Z,19.43
2023-05-20T10:58:27.965Z,19.49
2023-05-20T10:59:27.956Z,19.62
2023-05-20T11:00:27.940Z,19.67
2023-05-20T11:01:27.956Z,19.72
2023-05-20T11:02:27.977Z,19.70
2023-05-20T11:03:27.981Z,19.64
2023-05-20T11:04:27.911Z,19.60
2023-05-20T11:05:27.897Z,19.39
2023-05-20T11:06:27.885Z,19.28
2023-05-20T11:07:27.895Z,19.12
2023-05-20T11:08:29.376Z,19.15
2023-05-20T11:09:27.853Z,19.28
2023-05-20T11:10:27.844Z,19.39
2023-05-20T11:11:27.835Z,19.35
2023-05-20T11:12:27.847Z,19.31
2023-05-20T11:13:27.849Z,19.39
2023-05-20T11:14:27.781Z,19.46
2023-05-20T11:15:27.796Z,19.32
2023-05-20T11:16:27.839Z,19.32
2023-05-20T11:17:27.838Z,19.45
2023-05-20T11:18:27.745Z,19.53
2023-05-20T11:19:27.850Z,19.52
2023-05-20T11:20:27.739Z,19.43
2023-05-20T11:21:27.720Z,19.52
2023-05-20T11:22:27.705Z,19.67
2023-05-20T11:23:27.698Z,19.70
2023-05-20T11:24:27.739Z,19.76
2023-05-20T11:25:27.697Z,19.57
2023-05-20T11:26:27.659Z,19.45
2023-05-20T11:27:27.651Z,19.34
2023-05-20T11:28:27.644Z,19.15
2023-05-20T11:29:27.645Z,19.20
2023-05-20T11:30:27.649Z,19.28
2023-05-20T11:31:27.622Z,19.27
2023-05-20T11:32:27.712Z,19.27
2023-05-20T11:33:27.602Z,19.28
2023-05-20T11:34:29.332Z,19.49
2023-05-20T11:35:27.574Z,19.60
2023-05-20T11:36:28.317Z,19.49
2023-05-20T11:37:27.553Z,19.57
2023-05-20T11:38:27.542Z,19.60
2023-05-20T11:39:27.560Z,19.49
2023-05-20T11:40:30.652Z,19.68
2023-05-20T11:41:27.517Z,19.86
2023-05-20T11:42:27.484Z,20.04
2023-05-20T11:43:27.476Z,20.10
2023-05-20T11:44:27.468Z,20.07
2023-05-20T11:45:27.469Z,20.01
2023-05-20T11:46:27.508Z,19.98
2023-05-20T11:47:27.520Z,20.08
2023-05-20T11:48:27.431Z,19.97
2023-05-20T11:49:27.469Z,19.94
2023-05-20T11:50:27.394Z,19.76
2023-05-20T11:51:27.387Z,19.50
2023-05-20T11:52:27.370Z,19.46
2023-05-20T11:53:27.360Z,19.53
2023-05-20T11:54:27.357Z,19.53
2023-05-20T11:55:27.344Z,19.43
2023-05-20T11:56:27.328Z,19.49
2023-05-20T11:57:27.322Z,19.40
2023-05-20T11:58:27.330Z,19.28
2023-05-20T11:59:27.313Z,19.10
2023-05-20T12:00:31.223Z,19.05
2023-05-20T12:01:27.579Z,19.13
2023-05-20T12:02:27.368Z,19.12
2023-05-20T12:03:27.402Z,19.25
2023-05-20T12:04:27.274Z,19.38
2023-05-20T12:05:27.235Z,19.35
2023-05-20T12:06:27.210Z,19.28
2023-05-20T12:07:27.211Z,19.23
2023-05-20T12:08:27.238Z,19.20
2023-05-20T12:09:27.193Z,19.15
2023-05-20T12:10:27.202Z,19.17
2023-05-20T12:11:27.204Z,19.27
2023-05-20T12:12:27.155Z,19.40
2023-05-20T12:13:27.163Z,19.45
2023-05-20T12:14:27.132Z,19.47
2023-05-20T12:15:27.125Z,19.43
2023-05-20T12:16:27.134Z,19.20
2023-05-20T12:17:27.137Z,19.30
2023-05-20T12:18:27.098Z,19.32
2023-05-20T12:19:27.172Z,19.45
2023-05-20T12:20:27.070Z,19.52
2023-05-20T12:21:27.065Z,19.62
2023-05-20T12:22:27.060Z,19.53
2023-05-20T12:23:27.054Z,19.53
2023-05-20T12:24:27.017Z,19.57
2023-05-20T12:25:27.011Z,19.65
2023-05-20T12:26:26.994Z,19.50
2023-05-20T12:27:26.998Z,19.34
2023-05-20T12:28:26.974Z,19.17
2023-05-20T12:29:26.972Z,19.13
2023-05-20T12:30:26.947Z,19.09
2023-05-20T12:31:26.990Z,19.12
2023-05-20T12:32:26.970Z,19.10
2023-05-20T12:33:26.926Z,19.21
2023-05-20T12:34:26.922Z,19.30
2023-05-20T12:35:26.930Z,19.46
2023-05-20T12:36:26.896Z,19.46
2023-05-20T12:37:26.928Z,19.39
2023-05-20T12:38:26.869Z,19.38
2023-05-20T12:39:26.861Z,19.13
2023-05-20T12:40:26.836Z,19.07
2023-05-20T12:41:26.881Z,19.09
2023-05-20T12:42:26.824Z,19.01
2023-05-20T12:43:26.803Z,19.02
2023-05-20T12:44:26.796Z,19.09
2023-05-20T12:45:26.803Z,19.13
2023-05-20T12:46:26.827Z,19.25
2023-05-20T12:47:26.800Z,19.27
2023-05-20T12:48:26.788Z,19.34
2023-05-20T12:49:26.782Z,19.16
2023-05-20T12:50:26.745Z,19.17
2023-05-20T12:51:26.761Z,19.25
2023-05-20T12:52:26.702Z,19.28